createdAt,value
2022-10-18T00:02:26.178Z,13.65
2022-10-18T00:04:52.785Z,12.38
2022-10-18T00:07:19.355Z,11.82
2022-10-18T00:09:45.905Z,15.32
2022-10-18T00:12:12.579Z,11.02
2022-10-18T00:14:39.107Z,11.73
2022-10-18T00:17:05.754Z,16.38
2022-10-18T00:19:32.247Z,12.02
2022-10-18T00:21:58.806Z,10.57
2022-10-18T00:24:25.342Z,12.20
2022-10-18T00:26:51.895Z,11.90
2022-10-18T00:29:18.434Z,12.48
2022-10-18T00:31:45.222Z,10.32
2022-10-18T00:34:14.509Z,13.50
2022-10-18T00:36:42.128Z,14.40
2022-10-18T00:39:12.392Z,12.70
2022-10-18T00:41:39.035Z,11.55
2022-10-18T00:44:11.407Z,13.25
2022-10-18T00:46:40.973Z,12.63
2022-10-18T00:49:23.338Z,11.67
2022-10-18T00:51:57.748Z,12.20
2022-10-18T00:54:25.523Z,11.93
2022-10-18T00:56:52.287Z,10.55
2022-10-18T00:59:21.811Z,20.08
2022-10-18T01:01:48.450Z,14.50
2022-10-18T01:04:16.843Z,11.52
2022-10-18T01:07:12.794Z,13.05
2022-10-18T01:10:09.130Z,20.30
2022-10-18T01:13:07.685Z,14.52
2022-10-18T01:18:41.463Z,14.15
2022-10-18T01:21:27.792Z,14.70
2022-10-18T01:24:13.136Z,13.32
2022-10-18T01:26:52.166Z,14.65
2022-10-18T01:29:40.599Z,13.52
2022-10-18T01:32:14.009Z,17.73
2022-10-18T01:34:45.748Z,15.80
2022-10-18T01:37:16.922Z,14.80
2022-10-18T01:39:46.945Z,16.20
2022-10-18T01:42:17.068Z,15.30
2022-10-18T01:44:45.527Z,17.98
2022-10-18T01:47:14.170Z,17.00
2022-10-18T01:49:40.751Z,15.32
2022-10-18T01:52:09.465Z,18.50
2022-10-18T01:54:39.459Z,15.52
2022-10-18T01:57:24.038Z,13.77
2022-10-18T02:00:02.853Z,19.90
2022-10-18T02:02:38.097Z,13.80
2022-10-18T02:05:10.828Z,15.43
2022-10-18T02:07:51.910Z,15.13
2022-10-18T02:10:29.367Z,13.63
2022-10-18T02:12:58.049Z,14.15
2022-10-18T02:15:29.827Z,15.60
2022-10-18T02:17:57.237Z,16.95
2022-10-18T02:20:26.199Z,13.48
2022-10-18T02:22:55.766Z,15.52
2022-10-18T02:25:25.415Z,13.83
2022-10-18T02:27:52.482Z,14.67
2022-10-18T02:30:23.147Z,17.70
2022-10-18T02:33:15.425Z,18.92
2022-10-18T02:35:47.564Z,15.20
2022-10-18T02:38:17.490Z,14.48
2022-10-18T02:40:44.059Z,20.65
2022-10-18T02:43:10.621Z,14.85
2022-10-18T02:45:37.824Z,26.20
2022-10-18T02:48:04.533Z,14.00
2022-10-18T02:50:31.052Z,16.02
2022-10-18T02:52:57.798Z,18.38
2022-10-18T02:55:24.425Z,17.02
2022-10-18T02:57:50.954Z,17.27
2022-10-18T03:00:17.557Z,14.20
2022-10-18T03:02:44.074Z,14.93
2022-10-18T03:05:10.811Z,18.55
2022-10-18T03:07:37.317Z,18.10
2022-10-18T03:10:04.091Z,17.63
2022-10-18T03:12:30.611Z,16.95
2022-10-18T03:14:57.207Z,15.80
2022-10-18T03:17:23.742Z,17.17
2022-10-18T03:19:50.303Z,19.50
2022-10-18T03:22:16.946Z,19.60
2022-10-18T03:24:43.565Z,17.98
2022-10-18T03:27:10.058Z,20.20
2022-10-18T03:29:36.590Z,21.48
2022-10-18T03:32:03.433Z,20.65
2022-10-18T03:34:30.016Z,21.60
2022-10-18T03:37:00.935Z,24.73
2022-10-18T03:39:30.053Z,32.78
2022-10-18T03:41:56.668Z,37.70
2022-10-18T03:44:23.206Z,26.40
2022-10-18T03:46:49.842Z,28.15
2022-10-18T03:49:16.376Z,18.13
2022-10-18T03:51:42.951Z,19.27
2022-10-18T03:54:09.640Z,9.40
2022-10-18T03:56:36.340Z,12.05
2022-10-18T03:59:04.617Z,9.88
2022-10-18T04:01:31.565Z,8.90
2022-10-18T04:03:58.148Z,6.70
2022-10-18T04:06:24.705Z,7.35
2022-10-18T04:08:51.298Z,5.85
2022-10-18T04:11:17.959Z,7.35
2022-10-18T04:13:44.610Z,5.32
2022-10-18T04:16:11.216Z,7.28
2022-10-18T04:18:37.894Z,6.28
2022-10-18T04:21:04.629Z,6.53
2022-10-18T04:23:33.798Z,8.05
2022-10-18T04:26:03.040Z,4.68
2022-10-18T04:28:29.730Z,5.78
2022-10-18T04:30:56.506Z,6.15
2022-10-18T04:33:23.480Z,6.72
2022-10-18T04:35:52.222Z,8.20
2022-10-18T04:38:19.902Z,8.10
2022-10-18T04:40:46.814Z,5.82
2022-10-18T04:43:13.455Z,4.47
2022-10-18T04:45:39.998Z,6.20
2022-10-18T04:48:06.952Z,6.78
2022-10-18T04:50:33.663Z,8.35
2022-10-18T04:53:00.237Z,8.30
2022-10-18T04:55:26.760Z,6.10
2022-10-18T04:57:53.719Z,5.72
2022-10-18T05:00:20.471Z,9.20
2022-10-18T05:02:47.007Z,7.10
2022-10-18T05:05:14.294Z,9.57
2022-10-18T05:07:41.480Z,5.50
2022-10-18T05:10:08.596Z,10.77
2022-10-18T05:12:35.233Z,7.00
2022-10-18T05:15:02.138Z,5.75
2022-10-18T05:17:28.653Z,5.15
2022-10-18T05:19:55.215Z,5.57
2022-10-18T05:22:21.749Z,6.38
2022-10-18T05:24:48.378Z,5.50
2022-10-18T05:27:15.307Z,3.78
2022-10-18T05:29:42.140Z,8.10
2022-10-18T05:32:08.893Z,5.15
2022-10-18T05:34:36.177Z,3.20
2022-10-18T05:37:03.079Z,5.20
2022-10-18T05:39:29.714Z,4.32
2022-10-18T05:41:56.638Z,4.65
2022-10-18T05:44:23.199Z,6.47
2022-10-18T05:46:49.871Z,3.60
2022-10-18T05:49:16.597Z,4.75
2022-10-18T05:51:43.263Z,5.55
2022-10-18T05:54:11.863Z,4.90
2022-10-18T05:59:10.173Z,5.03
2022-10-18T06:01:37.274Z,6.50
2022-10-18T06:04:03.950Z,5.85
2022-10-18T06:06:31.211Z,7.00
2022-10-18T06:08:58.351Z,7.63
2022-10-18T06:11:25.065Z,5.85
2022-10-18T06:13:52.549Z,6.85
2022-10-18T06:16:28.523Z,8.00
2022-10-18T06:18:57.921Z,7.70
2022-10-18T06:21:24.917Z,11.48
2022-10-18T06:23:53.069Z,9.68
2022-10-18T06:26:20.456Z,8.40
2022-10-18T06:28:47.169Z,7.15
2022-10-18T06:31:14.819Z,9.02
2022-10-18T06:33:41.773Z,9.98
2022-10-18T06:36:12.265Z,9.40
2022-10-18T06:41:06.256Z,7.78
2022-10-18T06:43:33.502Z,11.52
2022-10-18T06:46:02.611Z,10.85
2022-10-18T06:48:29.280Z,15.07
2022-10-18T06:51:01.630Z,10.18
2022-10-18T06:53:30.864Z,10.02
2022-10-18T06:56:07.528Z,11.98
2022-10-18T06:58:35.559Z,9.50
2022-10-18T07:01:14.069Z,11.30
2022-10-18T07:03:40.720Z,12.50
2022-10-18T07:06:09.908Z,13.98
2022-10-18T07:08:36.994Z,14.18
2022-10-18T07:11:04.589Z,14.02
2022-10-18T07:13:33.446Z,14.82
2022-10-18T07:16:17.303Z,11.68
2022-10-18T07:18:49.451Z,10.45
2022-10-18T07:21:22.119Z,14.80
2022-10-18T07:23:49.486Z,15.45
2022-10-18T07:26:19.187Z,11.25
2022-10-18T07:28:48.550Z,12.05
2022-10-18T07:31:15.854Z,14.13
2022-10-18T07:33:45.753Z,16.92
2022-10-18T07:36:13.617Z,16.10
2022-10-18T07:38:40.628Z,14.10
2022-10-18T07:41:08.530Z,15.73
2022-10-18T07:43:36.073Z,19.65
2022-10-18T07:46:06.067Z,18.02
2022-10-18T07:48:32.911Z,17.58
2022-10-18T07:51:00.811Z,17.73
2022-10-18T07:53:31.011Z,22.20
2022-10-18T07:55:59.418Z,16.42
2022-10-18T07:58:26.209Z,12.65
2022-10-18T08:00:53.339Z,14.05
2022-10-18T08:03:20.121Z,16.60
2022-10-18T08:05:54.141Z,14.70
2022-10-18T08:08:22.614Z,13.00
2022-10-18T08:10:49.365Z,18.92
2022-10-18T08:13:16.828Z,15.63
2022-10-18T08:15:43.505Z,19.38
2022-10-18T08:18:10.690Z,15.25
2022-10-18T08:20:37.656Z,11.65
2022-10-18T08:23:05.164Z,14.40
2022-10-18T08:25:31.780Z,13.02
2022-10-18T08:28:01.299Z,19.35
2022-10-18T08:30:27.949Z,16.00
2022-10-18T08:32:54.522Z,24.20
2022-10-18T08:35:21.099Z,22.92
2022-10-18T08:37:48.697Z,27.48
2022-10-18T08:40:16.021Z,30.48
2022-10-18T08:43:07.187Z,29.05
2022-10-18T08:45:42.498Z,38.85
2022-10-18T08:48:21.855Z,39.08
2022-10-18T08:50:50.917Z,41.65
2022-10-18T08:53:20.809Z,36.10
2022-10-18T08:55:58.416Z,32.13
2022-10-18T08:58:29.627Z,27.58
2022-10-18T09:00:58.859Z,30.05
2022-10-18T09:03:54.793Z,29.88
2022-10-18T09:06:51.856Z,23.15
2022-10-18T09:09:27.448Z,19.95
2022-10-18T09:12:30.472Z,21.70
2022-10-18T09:15:22.107Z,16.17
2022-10-18T09:18:04.127Z,18.67
2022-10-18T09:20:53.218Z,23.02
2022-10-18T09:23:46.568Z,19.45
2022-10-18T09:26:22.117Z,17.98
2022-10-18T09:29:13.737Z,12.63
2022-10-18T09:32:04.720Z,9.32
2022-10-18T09:34:34.116Z,8.48
2022-10-18T09:37:01.410Z,6.38
2022-10-18T09:39:35.297Z,6.93
2022-10-18T09:42:14.443Z,6.90
2022-10-18T09:45:08.204Z,5.38
2022-10-18T09:47:43.903Z,8.30
2022-10-18T09:50:32.496Z,7.50
2022-10-18T09:53:13.643Z,10.38
2022-10-18T09:56:00.482Z,7.15
2022-10-18T09:58:39.105Z,8.43
2022-10-18T10:01:06.446Z,10.75
2022-10-18T10:03:34.281Z,9.10
2022-10-18T10:06:13.161Z,9.00
2022-10-18T10:08:47.632Z,10.13
2022-10-18T10:11:31.826Z,8.07
2022-10-18T10:14:08.429Z,6.82
2022-10-18T10:16:44.650Z,7.95
2022-10-18T10:19:17.548Z,6.78
2022-10-18T10:21:44.355Z,6.55
2022-10-18T10:24:22.778Z,7.15
2022-10-18T10:26:50.418Z,6.43
2022-10-18T10:29:47.467Z,10.27
2022-10-18T10:32:17.141Z,3.83
2022-10-18T10:34:44.925Z,8.70
2022-10-18T10:37:32.287Z,8.52
2022-10-18T10:40:17.734Z,5.65
2022-10-18T10:43:12.713Z,4.03
2022-10-18T10:46:00.847Z,5.82
2022-10-18T10:48:33.146Z,3.45
2022-10-18T10:51:07.445Z,6.28
2022-10-18T10:53:50.814Z,5.68
2022-10-18T10:56:25.106Z,7.00
2022-10-18T10:58:53.960Z,2.05
2022-10-18T11:01:24.478Z,3.33
2022-10-18T11:06:36.892Z,2.72
2022-10-18T11:09:12.461Z,3.47
2022-10-18T11:11:49.574Z,2.80
2022-10-18T11:14:28.101Z,3.03
2022-10-18T11:17:16.297Z,2.92
2022-10-18T11:20:19.904Z,3.97
2022-10-18T11:23:10.922Z,1.67
2022-10-18T11:26:01.623Z,1.92
2022-10-18T11:28:37.004Z,3.25
2022-10-18T11:31:22.425Z,3.53
2022-10-18T11:34:11.513Z,5.55
2022-10-18T11:37:27.258Z,1.15
2022-10-18T11:40:18.238Z,1.70
2022-10-18T11:43:01.632Z,1.58
2022-10-18T11:45:57.550Z,1.70
2022-10-18T11:48:45.910Z,4.68
2022-10-18T11:51:33.963Z,2.13
2022-10-18T11:54:36.851Z,2.13
2022-10-18T11:57:21.636Z,1.25
2022-10-18T12:02:56.150Z,2.80
2022-10-18T12:05:25.243Z,2.05
2022-10-18T12:08:25.601Z,2.85
2022-10-18T12:11:05.563Z,2.67
2022-10-18T12:13:38.545Z,1.88
2022-10-18T12:16:07.879Z,1.42
2022-10-18T12:18:40.813Z,3.35
2022-10-18T12:21:07.946Z,2.85
2022-10-18T12:23:53.632Z,1.30
2022-10-18T12:26:21.510Z,2.90
2022-10-18T12:29:02.860Z,2.30
2022-10-18T12:31:45.528Z,1.98
2022-10-18T12:34:29.089Z,1.52
2022-10-18T12:37:24.508Z,2.42
2022-10-18T12:40:18.590Z,0.88
2022-10-18T12:42:49.056Z,0.80
2022-10-18T12:45:27.988Z,2.55
2022-10-18T12:47:59.408Z,0.73
2022-10-18T12:50:42.097Z,0.80
2022-10-18T12:53:26.698Z,0.82
2022-10-18T12:55:54.667Z,1.08
2022-10-18T12:58:21.157Z,1.02
2022-10-18T13:00:48.030Z,1.38
2022-10-18T13:03:17.295Z,1.27
2022-10-18T13:05:54.975Z,1.27
2022-10-18T13:08:30.681Z,1.52
2022-10-18T13:11:12.349Z,1.42
2022-10-18T13:14:00.748Z,1.42
2022-10-18T13:16:36.251Z,1.33
2022-10-18T13:19:25.189Z,0.82
2022-10-18T13:22:21.645Z,0.93
2022-10-18T13:25:20.574Z,1.80
2022-10-18T13:28:18.037Z,1.48
2022-10-18T13:31:09.855Z,1.50
2022-10-18T13:33:39.439Z,0.60
2022-10-18T13:36:23.060Z,0.93
2022-10-18T13:38:50.514Z,1.77
2022-10-18T13:41:32.718Z,0.73
2022-10-18T13:44:37.412Z,1.23
2022-10-18T13:47:03.949Z,1.52
2022-10-18T13:49:39.494Z,1.52
2022-10-18T13:52:18.213Z,1.17
2022-10-18T13:55:06.220Z,4.30
2022-10-18T13:58:10.703Z,4.20
2022-10-18T14:01:04.918Z,2.30
2022-10-18T14:04:04.841Z,0.88
2022-10-18T14:06:38.647Z,2.88
2022-10-18T14:09:44.453Z,1.45
2022-10-18T14:12:23.004Z,2.22
2022-10-18T14:14:59.730Z,0.93
2022-10-18T14:17:44.831Z,1.65
2022-10-18T14:20:28.742Z,1.13
2022-10-18T14:23:28.982Z,0.90
2022-10-18T14:26:16.173Z,1.15
2022-10-18T14:29:00.208Z,1.10
2022-10-18T14:31:28.124Z,1.40
2022-10-18T14:33:58.408Z,1.88
2022-10-18T14:36:27.967Z,0.80
2022-10-18T14:38:57.550Z,0.80
2022-10-18T14:41:29.756Z,1.03
2022-10-18T14:44:17.595Z,2.25
2022-10-18T14:46:46.613Z,1.25
2022-10-18T14:49:14.365Z,1.38
2022-10-18T14:51:43.213Z,1.13
2022-10-18T14:54:30.638Z,1.33
2022-10-18T14:57:00.047Z,1.23
2022-10-18T14:59:47.004Z,3.15
2022-10-18T15:02:31.885Z,1.00
2022-10-18T15:05:20.619Z,1.10
2022-10-18T15:07:48.261Z,1.20
2022-10-18T15:10:18.563Z,1.20
2022-10-18T15:13:08.270Z,1.73
2022-10-18T15:15:34.713Z,1.83
2022-10-18T15:18:01.811Z,1.05
2022-10-18T15:20:34.397Z,2.60
2022-10-18T15:23:23.267Z,2.55
2022-10-18T15:25:52.243Z,3.30
2022-10-18T15:28:29.796Z,1.98
2022-10-18T15:30:58.371Z,2.58
2022-10-18T15:33:27.596Z,2.53
2022-10-18T15:35:54.813Z,1.38
2022-10-18T15:38:21.297Z,1.63
2022-10-18T15:40:48.068Z,2.67
2022-10-18T15:43:23.758Z,2.33
2022-10-18T15:45:58.702Z,2.28
2022-10-18T15:48:40.466Z,5.15
2022-10-18T15:51:09.195Z,2.80
2022-10-18T15:53:43.354Z,2.03
2022-10-18T15:56:27.905Z,3.33
2022-10-18T15:58:57.132Z,2.30
2022-10-18T16:01:25.700Z,1.95
2022-10-18T16:03:52.567Z,1.70
2022-10-18T16:06:19.152Z,3.00
2022-10-18T16:08:50.096Z,2.35
2022-10-18T16:11:22.331Z,3.25
2022-10-18T16:13:49.770Z,2.60
2022-10-18T16:16:22.186Z,5.15
2022-10-18T16:18:49.651Z,3.70
2022-10-18T16:21:22.194Z,2.25
2022-10-18T16:23:49.531Z,2.35
2022-10-18T16:26:18.564Z,4.20
2022-10-18T16:28:45.794Z,3.30
2022-10-18T16:31:19.694Z,3.83
2022-10-18T16:33:46.934Z,2.13
2022-10-18T16:36:16.551Z,2.92
2022-10-18T16:38:44.398Z,4.63
2022-10-18T16:41:13.229Z,2.83
2022-10-18T16:43:40.121Z,4.20
2022-10-18T16:46:08.014Z,7.15
2022-10-18T16:48:34.751Z,6.50
2022-10-18T16:51:01.930Z,9.48
2022-10-18T16:53:28.824Z,8.00
2022-10-18T16:55:58.739Z,6.07
2022-10-18T16:58:26.329Z,6.45
2022-10-18T17:00:52.931Z,8.13
2022-10-18T17:03:19.670Z,7.07
2022-10-18T17:05:46.521Z,7.15
2022-10-18T17:08:21.994Z,7.88
2022-10-18T17:10:50.343Z,9.15
2022-10-18T17:13:17.126Z,7.20
2022-10-18T17:15:43.948Z,9.23
2022-10-18T17:18:30.763Z,7.38
2022-10-18T17:21:00.776Z,9.60
2022-10-18T17:23:27.251Z,10.65
2022-10-18T17:26:05.263Z,9.85
2022-10-18T17:28:36.491Z,10.18
2022-10-18T17:31:06.492Z,8.45
2022-10-18T17:33:33.092Z,13.05
2022-10-18T17:35:59.686Z,8.85
2022-10-18T17:38:26.326Z,7.40
2022-10-18T17:40:53.429Z,9.27
2022-10-18T17:43:20.304Z,8.43
2022-10-18T17:45:48.649Z,9.02
2022-10-18T17:48:15.235Z,8.40
2022-10-18T17:50:41.819Z,8.45
2022-10-18T17:53:09.690Z,7.53
2022-10-18T17:55:36.444Z,15.07
2022-10-18T17:58:03.280Z,10.65
2022-10-18T18:00:29.828Z,7.68
2022-10-18T18:03:00.204Z,7.28
2022-10-18T18:08:02.741Z,7.05
2022-10-18T18:10:33.147Z,7.90
2022-10-18T18:13:00.041Z,9.15
2022-10-18T18:15:26.669Z,5.68
2022-10-18T18:17:56.991Z,8.32
2022-10-18T18:20:24.484Z,8.30
2022-10-18T18:22:52.189Z,8.07
2022-10-18T18:25:18.920Z,7.97
2022-10-18T18:27:45.797Z,11.73
2022-10-18T18:30:12.538Z,9.40
2022-10-18T18:32:39.130Z,10.50
2022-10-18T18:35:05.994Z,8.45
2022-10-18T18:37:32.793Z,10.20
2022-10-18T18:39:59.324Z,9.30
2022-10-18T18:42:25.888Z,12.77
2022-10-18T18:44:52.467Z,11.15
2022-10-18T18:47:21.715Z,10.95
2022-10-18T18:49:48.591Z,12.67
2022-10-18T18:52:15.440Z,7.85
2022-10-18T18:54:42.077Z,9.10
2022-10-18T18:57:10.121Z,10.07
2022-10-18T18:59:36.789Z,7.63
2022-10-18T19:02:03.327Z,11.65
2022-10-18T19:04:30.021Z,12.23
2022-10-18T19:06:56.535Z,9.63
2022-10-18T19:09:23.878Z,9.57
2022-10-18T19:11:53.314Z,11.10
2022-10-18T19:16:49.084Z,11.15
2022-10-18T19:19:23.252Z,11.65
2022-10-18T19:21:55.258Z,8.77
2022-10-18T19:24:23.781Z,9.10
2022-10-18T19:26:55.470Z,12.45
2022-10-18T19:29:23.657Z,11.30
2022-10-18T19:31:51.984Z,10.75
2022-10-18T19:34:20.214Z,12.05
2022-10-18T19:36:48.089Z,9.23
2022-10-18T19:39:35.336Z,9.70
2022-10-18T19:42:05.251Z,10.77
2022-10-18T19:44:33.941Z,10.45
2022-10-18T19:47:00.821Z,9.35
2022-10-18T19:49:28.680Z,8.65
2022-10-18T19:51:56.565Z,12.02
2022-10-18T19:54:23.313Z,9.15
2022-10-18T19:56:49.916Z,8.38
2022-10-18T19:59:17.864Z,8.80
2022-10-18T20:01:45.404Z,19.63
2022-10-18T20:04:13.577Z,12.30
2022-10-18T20:06:40.920Z,15.50
2022-10-18T20:09:09.156Z,12.68
2022-10-18T20:11:36.681Z,10.32
2022-10-18T20:14:05.448Z,13.30
2022-10-18T20:16:33.325Z,13.45
2022-10-18T20:19:05.505Z,13.57
2022-10-18T20:21:35.951Z,13.52
2022-10-18T20:24:04.541Z,16.33
2022-10-18T20:26:31.457Z,15.65
2022-10-18T20:28:59.682Z,13.85
2022-10-18T20:31:29.531Z,13.70
2022-10-18T20:34:01.663Z,16.63
2022-10-18T20:36:30.154Z,14.32
2022-10-18T20:38:57.834Z,15.23
2022-10-18T20:41:29.967Z,14.43
2022-10-18T20:43:59.881Z,14.50
2022-10-18T20:46:29.992Z,21.33
2022-10-18T20:48:56.994Z,15.65
2022-10-18T20:51:23.942Z,17.85
2022-10-18T20:53:51.273Z,15.32
2022-10-18T20:56:20.730Z,16.02
2022-10-18T20:58:49.662Z,16.45
2022-10-18T21:01:19.917Z,20.75
2022-10-18T21:03:47.814Z,14.77
2022-10-18T21:06:22.804Z,17.02
2022-10-18T21:08:59.943Z,17.95
2022-10-18T21:11:28.040Z,16.60
2022-10-18T21:13:57.579Z,18.65
2022-10-18T21:16:24.134Z,16.73
2022-10-18T21:18:50.723Z,14.50
2022-10-18T21:21:20.463Z,16.63
2022-10-18T21:23:47.734Z,16.08
2022-10-18T21:26:23.146Z,15.13
2022-10-18T21:28:54.349Z,16.13
2022-10-18T21:31:23.113Z,19.08
2022-10-18T21:33:54.194Z,18.98
2022-10-18T21:36:21.339Z,17.52
2022-10-18T21:38:48.106Z,16.23
2022-10-18T21:41:17.032Z,16.15
2022-10-18T21:43:47.512Z,19.25
2022-10-18T21:48:46.855Z,19.98
2022-10-18T21:51:15.653Z,18.67
2022-10-18T21:53:43.981Z,23.35
2022-10-18T21:56:16.359Z,22.00
2022-10-18T21:58:44.156Z,18.75
2022-10-18T22:01:15.845Z,18.48
2022-10-18T22:03:43.077Z,19.58
2022-10-18T22:06:16.604Z,18.75
2022-10-18T22:08:51.849Z,23.75
2022-10-18T22:11:20.598Z,17.48
2022-10-18T22:13:47.511Z,18.00
2022-10-18T22:16:15.679Z,18.88
2022-10-18T22:18:42.545Z,20.63
2022-10-18T22:21:11.817Z,19.73
2022-10-18T22:23:41.826Z,21.25
2022-10-18T22:26:13.438Z,21.33
2022-10-18T22:28:41.595Z,22.35
2022-10-18T22:31:15.265Z,23.55
2022-10-18T22:33:41.818Z,21.38
2022-10-18T22:36:08.403Z,17.60
2022-10-18T22:38:35.413Z,24.02
2022-10-18T22:41:10.495Z,22.75
2022-10-18T22:43:38.117Z,20.75
2022-10-18T22:46:07.076Z,23.35
2022-10-18T22:48:34.367Z,24.85
2022-10-18T22:51:01.377Z,22.63
2022-10-18T22:53:28.122Z,22.27
2022-10-18T22:55:55.128Z,22.35
2022-10-18T22:58:22.147Z,23.27
2022-10-18T23:00:48.951Z,25.27
2022-10-18T23:03:16.865Z,23.38
2022-10-18T23:05:45.773Z,23.63
2022-10-18T23:08:14.329Z,20.70
2022-10-18T23:10:42.366Z,24.27
2022-10-18T23:13:09.626Z,25.38
2022-10-18T23:15:38.948Z,27.20
2022-10-18T23:18:05.700Z,25.98
2022-10-18T23:20:32.256Z,23.33
2022-10-18T23:22:58.759Z,27.67
2022-10-18T23:25:25.553Z,27.35
2022-10-18T23:27:52.193Z,29.27
2022-10-18T23:30:18.838Z,28.33
2022-10-18T23:32:45.410Z,29.48
2022-10-18T23:35:11.884Z,24.92
2022-10-18T23:37:38.458Z,30.38
2022-10-18T23:40:05.411Z,33.30
2022-10-18T23:42:31.921Z,28.67
2022-10-18T23:44:58.463Z,37.08
2022-10-18T23:47:25.008Z,28.52
2022-10-18T23:49:51.529Z,37.42
2022-10-18T23:52:18.058Z,31.90
2022-10-18T23:57:10.989Z,28.98
2022-10-18T23:59:37.528Z,28.92
